^^
Grace C. Lehan Memorial Weather Station Historical Data
Daily Summary for March 30, 2021 Units:  Both    English   Metric
Daily Weekly Monthly Yearly
  High: Low: Average:
Temperature: 39.5 °F /  4.2 °C 26.3 °F /  -3.2 °C 33.5 °F /  0.8 °C
Dew Point: 32.1 °F /  0.1 °C 20.1 °F /  -6.6 °C 26.1 °F /  -3.3 °C
Humidity: 84% 64% 74%
Wind Speed: 3.4mph /  5.5km/h - 0.4mph /  0.6km/h
Wind Gust: 11mph /  17.7km/h - -
Wind- - WSW
Pressure: 29.99 in /  1015.5 hPa 29.89 in /  1012.1 hPa -
Precipitation: 0.00 in /  0 mm    
 
 
Tabular Data for March 30, 2021
Time Temperature Dew Point Pressure Wind Wind Speed Wind Gust Humidity Rainfall Rate (Hourly) solar
00:04 29.6 °F /  -1.3 °C 21.7 °F /  -5.7 °C 29.93in /  1013.4hPa Calm   6mph /  9.7km/h 72% 0.00in /  0mm 0 W/m2
00:09 29.6 °F /  -1.3 °C 21.7 °F /  -5.7 °C 29.93in /  1013.4hPa Calm     72% 0.00in /  0mm 0 W/m2
00:14 29.5 °F /  -1.4 °C 21.6 °F /  -5.8 °C 29.93in /  1013.4hPa Calm     72% 0.00in /  0mm 0 W/m2
00:19 29.4 °F /  -1.4 °C 21.5 °F /  -5.8 °C 29.93in /  1013.4hPa Calm     72% 0.00in /  0mm 0 W/m2
00:24 29.3 °F /  -1.5 °C 21.6 °F /  -5.8 °C 29.93in /  1013.4hPa Calm     72.8% 0.00in /  0mm 0 W/m2
00:29 29.2 °F /  -1.6 °C 21.6 °F /  -5.8 °C 29.93in /  1013.4hPa Calm     73% 0.00in /  0mm 0 W/m2
00:34 29.1 °F /  -1.6 °C 21.5 °F /  -5.8 °C 29.93in /  1013.4hPa WNW 0.2mph /  0.3km/h 3mph /  4.8km/h 73% 0.00in /  0mm 0 W/m2
00:39 29 °F /  -1.7 °C 21.7 °F /  -5.7 °C 29.93in /  1013.4hPa Calm   3mph /  4.8km/h 74% 0.00in /  0mm 0 W/m2
00:44 28.9 °F /  -1.7 °C 21.6 °F /  -5.8 °C 29.93in /  1013.4hPa Calm   3mph /  4.8km/h 74% 0.00in /  0mm 0 W/m2
00:49 28.8 °F /  -1.8 °C 21.5 °F /  -5.8 °C 29.93in /  1013.4hPa Calm   3mph /  4.8km/h 74% 0.00in /  0mm 0 W/m2
00:53 28.7 °F /  -1.8 °C 21.4 °F /  -5.9 °C 29.93in /  1013.4hPa WNW 1.6mph /  2.6km/h 7mph /  11.3km/h 74% 0.00in /  0mm 0 W/m2
00:59 28.7 °F /  -1.8 °C 21.7 °F /  -5.7 °C 29.93in /  1013.4hPa Calm   7mph /  11.3km/h 75% 0.00in /  0mm 0 W/m2
01:04 28.6 °F /  -1.9 °C 21.7 °F /  -5.7 °C 29.93in /  1013.4hPa Calm   7mph /  11.3km/h 75% 0.00in /  0mm 0 W/m2
01:09 28.6 °F /  -1.9 °C 21.7 °F /  -5.7 °C 29.93in /  1013.4hPa Calm     75% 0.00in /  0mm 0 W/m2
01:14 28.5 °F /  -1.9 °C 21.6 °F /  -5.8 °C 29.93in /  1013.4hPa Calm     75% 0.00in /  0mm 0 W/m2
01:19 28.4 °F /  -2 °C 21.5 °F /  -5.8 °C 29.93in /  1013.4hPa Calm     75% 0.00in /  0mm 0 W/m2
01:24 28.3 °F /  -2.1 °C 21.4 °F /  -5.9 °C 29.93in /  1013.4hPa Calm     75% 0.00in /  0mm 0 W/m2
01:29 28.3 °F /  -2.1 °C 21.6 °F /  -5.8 °C 29.93in /  1013.4hPa Calm     75.6% 0.00in /  0mm 0 W/m2
01:34 28.1 °F /  -2.2 °C 21.6 °F /  -5.8 °C 29.94in /  1013.8hPa Calm     76% 0.00in /  0mm 0 W/m2
01:39 28 °F /  -2.2 °C 21.5 °F /  -5.8 °C 29.93in /  1013.4hPa Calm     76% 0.00in /  0mm 0 W/m2
01:44 28 °F /  -2.2 °C 21.6 °F /  -5.8 °C 29.94in /  1013.8hPa Calm   1mph /  1.6km/h 76.7% 0.00in /  0mm 0 W/m2
01:49 27.9 °F /  -2.3 °C 21.6 °F /  -5.8 °C 29.94in /  1013.8hPa WNW 0.3mph /  0.5km/h 2mph /  3.2km/h 77% 0.00in /  0mm 0 W/m2
01:54 27.9 °F /  -2.3 °C 21.6 °F /  -5.8 °C 29.94in /  1013.8hPa WNW 2.3mph /  3.7km/h 7mph /  11.3km/h 77% 0.00in /  0mm 0 W/m2
01:59 27.9 °F /  -2.3 °C 21.6 °F /  -5.8 °C 29.94in /  1013.8hPa WNW 1.2mph /  1.9km/h 7mph /  11.3km/h 76.7% 0.00in /  0mm 0 W/m2
02:04 27.9 °F /  -2.3 °C 21.4 °F /  -5.9 °C 29.94in /  1013.8hPa WNW 1.1mph /  1.8km/h 7mph /  11.3km/h 76% 0.00in /  0mm 0 W/m2
02:09 28 °F /  -2.2 °C 21.5 °F /  -5.8 °C 29.94in /  1013.8hPa WNW 2.7mph /  4.3km/h 10mph /  16.1km/h 76% 0.00in /  0mm 0 W/m2
02:14 28.2 °F /  -2.1 °C 21.6 °F /  -5.8 °C 29.94in /  1013.8hPa WNW 0.8mph /  1.3km/h 10mph /  16.1km/h 76% 0.00in /  0mm 0 W/m2
02:17 28.3 °F /  -2.1 °C 21.5 °F /  -5.8 °C 29.94in /  1013.8hPa WNW 0.5mph /  0.8km/h 10mph /  16.1km/h 75.3% 0.00in /  0mm 0 W/m2
03:00 28.7 °F /  -1.8 °C 21.5 °F /  -5.8 °C 29.94in /  1013.8hPa NW 1mph /  1.6km/h 6mph /  9.7km/h 74% 0.00in /  0mm 0 W/m2
03:30 28 °F /  -2.2 °C 21.1 °F /  -6.1 °C 29.94in /  1013.8hPa NW 1mph /  1.6km/h 7mph /  11.3km/h 75% 0.00in /  0mm 0 W/m2
04:04 27.8 °F /  -2.3 °C 20.6 °F /  -6.3 °C 29.95in /  1014.1hPa WNW 1.1mph /  1.8km/h 7mph /  11.3km/h 74.1% 0.00in /  0mm 0 W/m2
04:09 27.9 °F /  -2.3 °C 20.7 °F /  -6.3 °C 29.95in /  1014.1hPa WNW 0.4mph /  0.6km/h 3mph /  4.8km/h 74% 0.00in /  0mm 0 W/m2
04:14 27.9 °F /  -2.3 °C 20.5 °F /  -6.4 °C 29.95in /  1014.1hPa Calm   3mph /  4.8km/h 73.5% 0.00in /  0mm 0 W/m2
04:19 27.8 °F /  -2.3 °C 20.3 °F /  -6.5 °C 29.95in /  1014.1hPa Calm   3mph /  4.8km/h 73% 0.00in /  0mm 0 W/m2
04:24 27.8 °F /  -2.3 °C 20.3 °F /  -6.5 °C 29.95in /  1014.1hPa Calm   3mph /  4.8km/h 73% 0.00in /  0mm 0 W/m2
04:29 27.7 °F /  -2.4 °C 20.3 °F /  -6.5 °C 29.95in /  1014.1hPa Calm   3mph /  4.8km/h 73.5% 0.00in /  0mm 0 W/m2
04:34 27.6 °F /  -2.4 °C 20.4 °F /  -6.4 °C 29.95in /  1014.1hPa Calm   3mph /  4.8km/h 74% 0.00in /  0mm 0 W/m2
04:39 27.6 °F /  -2.4 °C 20.5 °F /  -6.4 °C 29.95in /  1014.1hPa Calm     74.3% 0.00in /  0mm 0 W/m2
04:44 27.5 °F /  -2.5 °C 20.3 °F /  -6.5 °C 29.95in /  1014.1hPa Calm     74% 0.00in /  0mm 0 W/m2
04:49 27.4 °F /  -2.6 °C 20.2 °F /  -6.6 °C 29.95in /  1014.1hPa Calm     74% 0.00in /  0mm 0 W/m2
04:54 27.3 °F /  -2.6 °C 20.3 °F /  -6.5 °C 29.95in /  1014.1hPa Calm     74.6% 0.00in /  0mm 0 W/m2
04:59 27.3 °F /  -2.6 °C 20.4 °F /  -6.4 °C 29.95in /  1014.1hPa Calm     75% 0.00in /  0mm 0 W/m2
05:04 27.2 °F /  -2.7 °C 20.3 °F /  -6.5 °C 29.95in /  1014.1hPa Calm     75% 0.00in /  0mm 0 W/m2
05:09 27.1 °F /  -2.7 °C 20.3 °F /  -6.5 °C 29.95in /  1014.1hPa Calm     75% 0.00in /  0mm 0 W/m2
05:14 27.1 °F /  -2.7 °C 20.5 °F /  -6.4 °C 29.95in /  1014.1hPa Calm     75.7% 0.00in /  0mm 0 W/m2
05:19 27 °F /  -2.8 °C 20.4 °F /  -6.4 °C 29.95in /  1014.1hPa Calm     76% 0.00in /  0mm 0 W/m2
05:24 26.8 °F /  -2.9 °C 20.2 °F /  -6.6 °C 29.96in /  1014.4hPa Calm     76% 0.00in /  0mm 0 W/m2
05:29 26.6 °F /  -3 °C 20.1 °F /  -6.6 °C 29.96in /  1014.4hPa Calm     76% 0.00in /  0mm 0 W/m2
05:34 26.5 °F /  -3.1 °C 20.1 °F /  -6.6 °C 29.96in /  1014.4hPa Calm     76.4% 0.00in /  0mm 0 W/m2
05:39 26.4 °F /  -3.1 °C 20.2 °F /  -6.6 °C 29.96in /  1014.4hPa Calm     77% 0.00in /  0mm 0 W/m2
05:44 26.3 °F /  -3.2 °C 20.1 °F /  -6.6 °C 29.96in /  1014.4hPa Calm     77% 0.00in /  0mm 0 W/m2
05:49 26.3 °F /  -3.2 °C 20.1 °F /  -6.6 °C 29.96in /  1014.4hPa Calm     77% 0.00in /  0mm 0 W/m2
05:54 26.5 °F /  -3.1 °C 20.3 °F /  -6.5 °C 29.96in /  1014.4hPa Calm     77% 0.00in /  0mm 0 W/m2
05:59 26.5 °F /  -3.1 °C 20.3 °F /  -6.5 °C 29.96in /  1014.4hPa Calm     77% 0.00in /  0mm 0 W/m2
06:04 26.5 °F /  -3.1 °C 20.3 °F /  -6.5 °C 29.96in /  1014.4hPa Calm     77% 0.00in /  0mm 0 W/m2
06:09 26.4 °F /  -3.1 °C 20.2 °F /  -6.6 °C 29.97in /  1014.8hPa Calm     77% 0.00in /  0mm 0 W/m2
06:14 26.4 °F /  -3.1 °C 20.2 °F /  -6.6 °C 29.97in /  1014.8hPa Calm     77% 0.00in /  0mm 0 W/m2
06:19 26.4 °F /  -3.1 °C 20.3 °F /  -6.5 °C 29.97in /  1014.8hPa WNW 0.1mph /  0.2km/h 3mph /  4.8km/h 77.4% 0.00in /  0mm 0 W/m2
06:24 26.6 °F /  -3 °C 20.6 °F /  -6.3 °C 29.97in /  1014.8hPa Calm   3mph /  4.8km/h 77.7% 0.00in /  0mm 0 W/m2
06:29 26.6 °F /  -3 °C 20.4 °F /  -6.4 °C 29.97in /  1014.8hPa Calm   3mph /  4.8km/h 77% 0.00in /  0mm 0 W/m2
06:34 26.7 °F /  -2.9 °C 20.8 °F /  -6.2 °C 29.97in /  1014.8hPa Calm   3mph /  4.8km/h 77.8% 0.00in /  0mm 0 W/m2
06:39 26.8 °F /  -2.9 °C 20.6 °F /  -6.3 °C 29.97in /  1014.8hPa Calm     77% 0.00in /  0mm 0 W/m2
06:44 26.7 °F /  -2.9 °C 20.6 °F /  -6.3 °C 29.97in /  1014.8hPa Calm     77.4% 0.00in /  0mm 0 W/m2
06:49 26.6 °F /  -3 °C 20.7 °F /  -6.3 °C 29.97in /  1014.8hPa Calm     78% 0.00in /  0mm 0 W/m2
06:54 26.5 °F /  -3.1 °C 20.5 °F /  -6.4 °C 29.98in /  1015.1hPa Calm     78% 0.00in /  0mm 0 W/m2
06:59 26.3 °F /  -3.2 °C 20.7 °F /  -6.3 °C 29.98in /  1015.1hPa Calm     78.8% 0.00in /  0mm 5 W/m2
07:04 26.3 °F /  -3.2 °C 20.7 °F /  -6.3 °C 29.98in /  1015.1hPa Calm     79% 0.00in /  0mm 7 W/m2
07:09 26.3 °F /  -3.2 °C 20.7 °F /  -6.3 °C 29.98in /  1015.1hPa Calm     79.1% 0.00in /  0mm 9 W/m2
07:14 26.3 °F /  -3.2 °C 21 °F /  -6.1 °C 29.98in /  1015.1hPa Calm     80% 0.00in /  0mm 11 W/m2
07:19 26.3 °F /  -3.2 °C 21 °F /  -6.1 °C 29.98in /  1015.1hPa Calm     80% 0.00in /  0mm 14 W/m2
07:24 26.3 °F /  -3.2 °C 21 °F /  -6.1 °C 29.98in /  1015.1hPa Calm     80% 0.00in /  0mm 19 W/m2
07:29 26.4 °F /  -3.1 °C 21.3 °F /  -5.9 °C 29.99in /  1015.5hPa Calm     80.8% 0.00in /  0mm 35 W/m2
07:34 26.6 °F /  -3 °C 21.6 °F /  -5.8 °C 29.99in /  1015.5hPa Calm     81.1% 0.00in /  0mm 65 W/m2
07:39 27.1 °F /  -2.7 °C 22.3 °F /  -5.4 °C 29.99in /  1015.5hPa Calm     82% 0.00in /  0mm 69 W/m2
07:44 27.6 °F /  -2.4 °C 22.8 °F /  -5.1 °C 29.99in /  1015.5hPa Calm     81.6% 0.00in /  0mm 104 W/m2
07:49 28.2 °F /  -2.1 °C 23.1 °F /  -4.9 °C 29.99in /  1015.5hPa Calm     80.8% 0.00in /  0mm 97 W/m2
07:54 28.7 °F /  -1.8 °C 23.2 °F /  -4.9 °C 29.99in /  1015.5hPa Calm     79.5% 0.00in /  0mm 83 W/m2
07:59 29.1 °F /  -1.6 °C 23.2 °F /  -4.9 °C 29.99in /  1015.5hPa Calm     78.5% 0.00in /  0mm 114 W/m2
08:04 29.7 °F /  -1.3 °C 23.7 °F /  -4.6 °C 29.99in /  1015.5hPa Calm     78% 0.00in /  0mm 142 W/m2
08:09 30.1 °F /  -1.1 °C 24.1 °F /  -4.4 °C 29.99in /  1015.5hPa Calm     78% 0.00in /  0mm 192 W/m2
08:14 31 °F /  -0.6 °C 24.8 °F /  -4 °C 29.99in /  1015.5hPa Calm     77.4% 0.00in /  0mm 220 W/m2
08:19 32.1 °F /  0.1 °C 25.2 °F /  -3.8 °C 29.99in /  1015.5hPa Calm     75.5% 0.00in /  0mm 269 W/m2
08:24 33 °F /  0.6 °C 24.9 °F /  -3.9 °C 29.99in /  1015.5hPa Calm     71.9% 0.00in /  0mm 181 W/m2
08:29 33.1 °F /  0.6 °C 24.4 °F /  -4.2 °C 29.99in /  1015.5hPa Calm     70% 0.00in /  0mm 241 W/m2
08:34 32.9 °F /  0.5 °C 24.2 °F /  -4.3 °C 29.99in /  1015.5hPa Calm     69.9% 0.00in /  0mm 209 W/m2
08:39 32.4 °F /  0.2 °C 23.6 °F /  -4.7 °C 29.98in /  1015.1hPa Calm     69.5% 0.00in /  0mm 199 W/m2
08:44 32.2 °F /  0.1 °C 23.8 °F /  -4.6 °C 29.99in /  1015.5hPa Calm     70.9% 0.00in /  0mm 218 W/m2
08:49 32.1 °F /  0.1 °C 24.1 °F /  -4.4 °C 29.99in /  1015.5hPa Calm     71.8% 0.00in /  0mm 102 W/m2
08:54 32.2 °F /  0.1 °C 24.2 °F /  -4.3 °C 29.99in /  1015.5hPa Calm     72% 0.00in /  0mm 109 W/m2
08:59 32.3 °F /  0.2 °C 24.3 °F /  -4.3 °C 29.99in /  1015.5hPa Calm     72% 0.00in /  0mm 109 W/m2
09:04 32.3 °F /  0.2 °C 24.3 °F /  -4.3 °C 29.98in /  1015.1hPa Calm     71.9% 0.00in /  0mm 125 W/m2
09:09 32.3 °F /  0.2 °C 24.1 °F /  -4.4 °C 29.98in /  1015.1hPa Calm     71.5% 0.00in /  0mm 135 W/m2
09:14 32.1 °F /  0.1 °C 23.5 °F /  -4.7 °C 29.98in /  1015.1hPa Calm     70% 0.00in /  0mm 142 W/m2
09:19 32.1 °F /  0.1 °C 23.7 °F /  -4.6 °C 29.98in /  1015.1hPa Calm     70.8% 0.00in /  0mm 165 W/m2
09:24 32.3 °F /  0.2 °C 24 °F /  -4.4 °C 29.98in /  1015.1hPa Calm     71% 0.00in /  0mm 167 W/m2
09:29 32.4 °F /  0.2 °C 23.7 °F /  -4.6 °C 29.98in /  1015.1hPa Calm     70.1% 0.00in /  0mm 200 W/m2
09:34 32.5 °F /  0.3 °C 24 °F /  -4.4 °C 29.98in /  1015.1hPa Calm     70.7% 0.00in /  0mm 232 W/m2
09:39 32.8 °F /  0.4 °C 24.5 °F /  -4.2 °C 29.98in /  1015.1hPa Calm     71% 0.00in /  0mm 232 W/m2
09:44 33.2 °F /  0.7 °C 24.7 °F /  -4.1 °C 29.98in /  1015.1hPa Calm     70.6% 0.00in /  0mm 190 W/m2
09:49 33.5 °F /  0.8 °C 24.9 °F /  -3.9 °C 29.99in /  1015.5hPa Calm     70.1% 0.00in /  0mm 193 W/m2
09:54 33.8 °F /  1 °C 24.9 °F /  -3.9 °C 29.98in /  1015.1hPa Calm     69.5% 0.00in /  0mm 172 W/m2
09:59 33.9 °F /  1.1 °C 24.7 °F /  -4.1 °C 29.98in /  1015.1hPa Calm     68.6% 0.00in /  0mm 160 W/m2
10:04 34.1 °F /  1.2 °C 24.8 °F /  -4 °C 29.98in /  1015.1hPa Calm     68.4% 0.00in /  0mm 153 W/m2
10:09 34.3 °F /  1.3 °C 24.9 °F /  -3.9 °C 29.98in /  1015.1hPa Calm     68.3% 0.00in /  0mm 165 W/m2
10:14 34.3 °F /  1.3 °C 24.9 °F /  -3.9 °C 29.97in /  1014.8hPa Calm     68% 0.00in /  0mm 220 W/m2
10:19 34.5 °F /  1.4 °C 25.2 °F /  -3.8 °C 29.98in /  1015.1hPa Calm     68.4% 0.00in /  0mm 193 W/m2
10:24 34.6 °F /  1.4 °C 25 °F /  -3.9 °C 29.97in /  1014.8hPa Calm     67.6% 0.00in /  0mm 148 W/m2
10:29 34.6 °F /  1.4 °C 25.2 °F /  -3.8 °C 29.97in /  1014.8hPa Calm     68.1% 0.00in /  0mm 156 W/m2
10:34 34.7 °F /  1.5 °C 25.6 °F /  -3.6 °C 29.97in /  1014.8hPa Calm     69% 0.00in /  0mm 181 W/m2
10:39 34.8 °F /  1.6 °C 25.5 °F /  -3.6 °C 29.96in /  1014.4hPa West 0.1mph /  0.2km/h 2mph /  3.2km/h 68.4% 0.00in /  0mm 211 W/m2
10:44 34.9 °F /  1.6 °C 25.4 °F /  -3.7 °C 29.96in /  1014.4hPa Calm   2mph /  3.2km/h 67.9% 0.00in /  0mm 234 W/m2
10:49 35 °F /  1.7 °C 25.5 °F /  -3.6 °C 29.96in /  1014.4hPa Calm   2mph /  3.2km/h 68% 0.00in /  0mm 234 W/m2
10:54 35.1 °F /  1.7 °C 25.7 °F /  -3.5 °C 29.96in /  1014.4hPa Calm   2mph /  3.2km/h 68.4% 0.00in /  0mm 220 W/m2
10:59 35.1 °F /  1.7 °C 25.6 °F /  -3.6 °C 29.95in /  1014.1hPa West 0.3mph /  0.5km/h 3mph /  4.8km/h 68% 0.00in /  0mm 169 W/m2
11:04 35 °F /  1.7 °C 25.5 °F /  -3.6 °C 29.95in /  1014.1hPa Calm   3mph /  4.8km/h 68% 0.00in /  0mm 132 W/m2
11:09 34.8 °F /  1.6 °C 25.3 °F /  -3.7 °C 29.95in /  1014.1hPa Calm     68% 0.00in /  0mm 125 W/m2
11:14 34.6 °F /  1.4 °C 25.4 °F /  -3.7 °C 29.95in /  1014.1hPa Calm     68.6% 0.00in /  0mm 120 W/m2
11:19 34.6 °F /  1.4 °C 25.6 °F /  -3.6 °C 29.95in /  1014.1hPa Calm     69.4% 0.00in /  0mm 114 W/m2
11:24 34.7 °F /  1.5 °C 25.9 °F /  -3.4 °C 29.95in /  1014.1hPa Calm     70% 0.00in /  0mm 102 W/m2
11:29 34.8 °F /  1.6 °C 25.9 °F /  -3.4 °C 29.94in /  1013.8hPa Calm     69.8% 0.00in /  0mm 84 W/m2
11:34 34.9 °F /  1.6 °C 26.1 °F /  -3.3 °C 29.94in /  1013.8hPa Calm     70% 0.00in /  0mm 83 W/m2
11:39 35 °F /  1.7 °C 26.1 °F /  -3.3 °C 29.94in /  1013.8hPa West 0.1mph /  0.2km/h 3mph /  4.8km/h 69.6% 0.00in /  0mm 91 W/m2
11:44 35.1 °F /  1.7 °C 25.7 °F /  -3.5 °C 29.94in /  1013.8hPa West 0.1mph /  0.2km/h 3mph /  4.8km/h 68.3% 0.00in /  0mm 121 W/m2
11:49 35.1 °F /  1.7 °C 26 °F /  -3.3 °C 29.94in /  1013.8hPa Calm   3mph /  4.8km/h 69% 0.00in /  0mm 144 W/m2
11:54 35.3 °F /  1.8 °C 26.2 °F /  -3.2 °C 29.94in /  1013.8hPa West 0.6mph /  1km/h 5mph /  8km/h 69% 0.00in /  0mm 148 W/m2
11:59 35.5 °F /  1.9 °C 26.4 °F /  -3.1 °C 29.94in /  1013.8hPa WSW 0.8mph /  1.3km/h 6mph /  9.7km/h 69% 0.00in /  0mm 144 W/m2
12:00 35.7 °F /  2.1 °C 26.5 °F /  -3.1 °C 29.94in /  1013.8hPa WSW 2mph /  3.2km/h 6mph /  9.7km/h 69% 0.00in /  0mm 139 W/m2
12:09 36 °F /  2.2 °C 26.5 °F /  -3.1 °C 29.94in /  1013.8hPa WSW 0.2mph /  0.3km/h 2mph /  3.2km/h 68% 0.00in /  0mm 160 W/m2
12:14 36.2 °F /  2.3 °C 26.4 °F /  -3.1 °C 29.93in /  1013.4hPa Calm   2mph /  3.2km/h 67.3% 0.00in /  0mm 172 W/m2
12:19 36.5 °F /  2.5 °C 26.9 °F /  -2.8 °C 29.93in /  1013.4hPa WSW 0.1mph /  0.2km/h 2mph /  3.2km/h 68% 0.00in /  0mm 172 W/m2
12:24 36.7 °F /  2.6 °C 27.3 °F /  -2.6 °C 29.93in /  1013.4hPa Calm   2mph /  3.2km/h 68.3% 0.00in /  0mm 169 W/m2
12:29 37 °F /  2.8 °C 27.2 °F /  -2.7 °C 29.93in /  1013.4hPa WSW 0.2mph /  0.3km/h 2mph /  3.2km/h 67.3% 0.00in /  0mm 151 W/m2
12:34 37.2 °F /  2.9 °C 27.6 °F /  -2.4 °C 29.93in /  1013.4hPa WSW 0.4mph /  0.6km/h 5mph /  8km/h 67.8% 0.00in /  0mm 149 W/m2
12:39 37.5 °F /  3.1 °C 27.8 °F /  -2.3 °C 29.93in /  1013.4hPa WSW 2.1mph /  3.4km/h 6mph /  9.7km/h 67.7% 0.00in /  0mm 151 W/m2
12:44 37.7 °F /  3.2 °C 27.7 °F /  -2.4 °C 29.93in /  1013.4hPa SW 2.3mph /  3.7km/h 9mph /  14.5km/h 67% 0.00in /  0mm 149 W/m2
12:49 37.8 °F /  3.2 °C 27.9 °F /  -2.3 °C 29.93in /  1013.4hPa SW 1.9mph /  3.1km/h 9mph /  14.5km/h 67% 0.00in /  0mm 146 W/m2
12:54 37.9 °F /  3.3 °C 28 °F /  -2.2 °C 29.93in /  1013.4hPa SW 1.3mph /  2.1km/h 9mph /  14.5km/h 67% 0.00in /  0mm 153 W/m2
12:59 38.1 °F /  3.4 °C 28.2 °F /  -2.1 °C 29.92in /  1013.1hPa WSW 0.8mph /  1.3km/h 9mph /  14.5km/h 67.2% 0.00in /  0mm 160 W/m2
13:04 38.3 °F /  3.5 °C 28.1 °F /  -2.2 °C 29.92in /  1013.1hPa WSW 0.6mph /  1km/h 9mph /  14.5km/h 66.3% 0.00in /  0mm 158 W/m2
13:09 38.5 °F /  3.6 °C 28.2 °F /  -2.1 °C 29.92in /  1013.1hPa WSW 0.9mph /  1.4km/h 3mph /  4.8km/h 66.2% 0.00in /  0mm 162 W/m2
13:14 38.7 °F /  3.7 °C 28.6 °F /  -1.9 °C 29.92in /  1013.1hPa WSW 1.4mph /  2.3km/h 6mph /  9.7km/h 66.7% 0.00in /  0mm 172 W/m2
13:19 38.9 °F /  3.8 °C 28.6 °F /  -1.9 °C 29.92in /  1013.1hPa WSW 0.5mph /  0.8km/h 6mph /  9.7km/h 66.3% 0.00in /  0mm 176 W/m2
13:24 39.1 °F /  3.9 °C 28.8 °F /  -1.8 °C 29.92in /  1013.1hPa SW 0.8mph /  1.3km/h 6mph /  9.7km/h 66.1% 0.00in /  0mm 169 W/m2
13:29 39.3 °F /  4.1 °C 28.9 °F /  -1.7 °C 29.92in /  1013.1hPa SW 0.6mph /  1km/h 6mph /  9.7km/h 65.9% 0.00in /  0mm 141 W/m2
13:34 39.4 °F /  4.1 °C 28.7 °F /  -1.8 °C 29.92in /  1013.1hPa SW 1.1mph /  1.8km/h 7mph /  11.3km/h 65% 0.00in /  0mm 130 W/m2
13:39 39.5 °F /  4.2 °C 28.6 °F /  -1.9 °C 29.92in /  1013.1hPa SW 2.1mph /  3.4km/h 10mph /  16.1km/h 64.5% 0.00in /  0mm 113 W/m2
13:44 39.5 °F /  4.2 °C 28.3 °F /  -2.1 °C 29.92in /  1013.1hPa SW 2.2mph /  3.5km/h 10mph /  16.1km/h 64% 0.00in /  0mm 91 W/m2
13:49 39.4 °F /  4.1 °C 28.3 °F /  -2.1 °C 29.92in /  1013.1hPa SW 1.1mph /  1.8km/h 10mph /  16.1km/h 64.3% 0.00in /  0mm 125 W/m2
13:54 39.3 °F /  4.1 °C 28.5 °F /  -1.9 °C 29.92in /  1013.1hPa SW 0.9mph /  1.4km/h 10mph /  16.1km/h 64.8% 0.00in /  0mm 125 W/m2
13:59 39.3 °F /  4.1 °C 28.5 °F /  -1.9 °C 29.92in /  1013.1hPa SW 1.6mph /  2.6km/h 10mph /  16.1km/h 65% 0.00in /  0mm 113 W/m2
14:04 39.3 °F /  4.1 °C 28.4 °F /  -2 °C 29.91in /  1012.8hPa SW 3.1mph /  5km/h 10mph /  16.1km/h 64.5% 0.00in /  0mm 111 W/m2
14:09 39.3 °F /  4.1 °C 28.2 °F /  -2.1 °C 29.91in /  1012.8hPa WSW 2.8mph /  4.5km/h 11mph /  17.7km/h 64% 0.00in /  0mm 107 W/m2
14:14 39.2 °F /  4 °C 28.2 °F /  -2.1 °C 29.91in /  1012.8hPa WSW 1.8mph /  2.9km/h 11mph /  17.7km/h 64.2% 0.00in /  0mm 100 W/m2
14:19 39.2 °F /  4 °C 28.4 °F /  -2 °C 29.91in /  1012.8hPa WSW 1.4mph /  2.3km/h 11mph /  17.7km/h 64.8% 0.00in /  0mm 90 W/m2
14:24 39.2 °F /  4 °C 28.4 °F /  -2 °C 29.91in /  1012.8hPa WSW 2.4mph /  3.9km/h 11mph /  17.7km/h 64.9% 0.00in /  0mm 79 W/m2
14:29 39.1 °F /  3.9 °C 28.3 °F /  -2.1 °C 29.91in /  1012.8hPa SW 1.1mph /  1.8km/h 11mph /  17.7km/h 65% 0.00in /  0mm 98 W/m2
14:34 39.2 °F /  4 °C 28.6 °F /  -1.9 °C 29.91in /  1012.8hPa WSW 0.6mph /  1km/h 11mph /  17.7km/h 65.6% 0.00in /  0mm 111 W/m2
14:39 39.3 °F /  4.1 °C 28.9 °F /  -1.7 °C 29.90in /  1012.4hPa WSW 0.8mph /  1.3km/h 6mph /  9.7km/h 66% 0.00in /  0mm 118 W/m2
14:44 39.4 °F /  4.1 °C 28.9 °F /  -1.7 °C 29.90in /  1012.4hPa WSW 0.5mph /  0.8km/h 6mph /  9.7km/h 65.8% 0.00in /  0mm 109 W/m2
14:49 39.5 °F /  4.2 °C 28.8 °F /  -1.8 °C 29.90in /  1012.4hPa WSW 1.4mph /  2.3km/h 7mph /  11.3km/h 65.1% 0.00in /  0mm 98 W/m2
14:54 39.5 °F /  4.2 °C 28.7 °F /  -1.8 °C 29.90in /  1012.4hPa WSW 1.1mph /  1.8km/h 7mph /  11.3km/h 65% 0.00in /  0mm 69 W/m2
14:59 39.4 °F /  4.1 °C 28.8 °F /  -1.8 °C 29.90in /  1012.4hPa SW 1mph /  1.6km/h 7mph /  11.3km/h 65.5% 0.00in /  0mm 62 W/m2
15:04 39.3 °F /  4.1 °C 29 °F /  -1.7 °C 29.90in /  1012.4hPa SW 0.5mph /  0.8km/h 7mph /  11.3km/h 66.3% 0.00in /  0mm 72 W/m2
15:09 39.3 °F /  4.1 °C 29.1 °F /  -1.6 °C 29.90in /  1012.4hPa SW 2.2mph /  3.5km/h 8mph /  12.9km/h 66.6% 0.00in /  0mm 72 W/m2
15:14 39.2 °F /  4 °C 29.2 °F /  -1.6 °C 29.90in /  1012.4hPa WSW 1.4mph /  2.3km/h 8mph /  12.9km/h 67% 0.00in /  0mm 47 W/m2
15:19 39.1 °F /  3.9 °C 29.2 °F /  -1.6 °C 29.90in /  1012.4hPa SW 1.4mph /  2.3km/h 8mph /  12.9km/h 67.3% 0.00in /  0mm 37 W/m2
15:24 39 °F /  3.9 °C 29.4 °F /  -1.4 °C 29.90in /  1012.4hPa SW 1.1mph /  1.8km/h 8mph /  12.9km/h 68% 0.00in /  0mm 40 W/m2
15:29 38.9 °F /  3.8 °C 29.6 °F /  -1.3 °C 29.90in /  1012.4hPa SW 1.3mph /  2.1km/h 8mph /  12.9km/h 68.9% 0.00in /  0mm 40 W/m2
15:34 38.8 °F /  3.8 °C 29.6 °F /  -1.3 °C 29.90in /  1012.4hPa SW 1mph /  1.6km/h 8mph /  12.9km/h 69% 0.00in /  0mm 32 W/m2
15:39 38.8 °F /  3.8 °C 29.8 °F /  -1.2 °C 29.90in /  1012.4hPa SW 0.7mph /  1.1km/h 4mph /  6.4km/h 69.9% 0.00in /  0mm 19 W/m2
15:44 38.7 °F /  3.7 °C 29.8 °F /  -1.2 °C 29.90in /  1012.4hPa WSW 0.6mph /  1km/h 5mph /  8km/h 70% 0.00in /  0mm 16 W/m2
15:49 38.6 °F /  3.7 °C 29.7 °F /  -1.3 °C 29.90in /  1012.4hPa WSW 1.3mph /  2.1km/h 6mph /  9.7km/h 70% 0.00in /  0mm 12 W/m2
15:54 38.6 °F /  3.7 °C 29.8 °F /  -1.2 °C 29.90in /  1012.4hPa WSW 0.9mph /  1.4km/h 6mph /  9.7km/h 70.3% 0.00in /  0mm 12 W/m2
15:58 38.5 °F /  3.6 °C 29.9 °F /  -1.2 °C 29.90in /  1012.4hPa WSW 1.6mph /  2.6km/h 6mph /  9.7km/h 71% 0.00in /  0mm 12 W/m2
16:04 38.4 °F /  3.6 °C 30.1 °F /  -1.1 °C 29.90in /  1012.4hPa WSW 0.7mph /  1.1km/h 2mph /  3.2km/h 71.9% 0.00in /  0mm 5 W/m2
16:09 38.3 °F /  3.5 °C 30.1 °F /  -1.1 °C 29.90in /  1012.4hPa Calm   2mph /  3.2km/h 72% 0.00in /  0mm 5 W/m2
16:14 38.3 °F /  3.5 °C 30.5 °F /  -0.8 °C 29.90in /  1012.4hPa Calm   2mph /  3.2km/h 73.3% 0.00in /  0mm 5 W/m2
16:19 38.2 °F /  3.4 °C 29.9 °F /  -1.2 °C 29.90in /  1012.4hPa WSW 1.5mph /  2.4km/h 6mph /  9.7km/h 72% 0.00in /  0mm 0 W/m2
16:24 38 °F /  3.3 °C 29.9 °F /  -1.2 °C 29.90in /  1012.4hPa SW 0.4mph /  0.6km/h 6mph /  9.7km/h 72.4% 0.00in /  0mm 0 W/m2
16:29 38 °F /  3.3 °C 30.1 °F /  -1.1 °C 29.90in /  1012.4hPa WSW 1.6mph /  2.6km/h 6mph /  9.7km/h 73% 0.00in /  0mm 0 W/m2
16:34 37.9 °F /  3.3 °C 30 °F /  -1.1 °C 29.90in /  1012.4hPa WSW 0.7mph /  1.1km/h 6mph /  9.7km/h 73% 0.00in /  0mm 0 W/m2
16:39 37.9 °F /  3.3 °C 30.3 °F /  -0.9 °C 29.90in /  1012.4hPa WSW 1.8mph /  2.9km/h 7mph /  11.3km/h 73.8% 0.00in /  0mm 0 W/m2
16:44 37.9 °F /  3.3 °C 30.3 °F /  -0.9 °C 29.90in /  1012.4hPa SW 2.5mph /  4km/h 7mph /  11.3km/h 74% 0.00in /  0mm 0 W/m2
16:49 37.8 °F /  3.2 °C 30.3 °F /  -0.9 °C 29.90in /  1012.4hPa WSW 1mph /  1.6km/h 7mph /  11.3km/h 74% 0.00in /  0mm 0 W/m2
16:54 37.7 °F /  3.2 °C 30.5 °F /  -0.8 °C 29.90in /  1012.4hPa WSW 2.1mph /  3.4km/h 7mph /  11.3km/h 74.8% 0.00in /  0mm 0 W/m2
16:59 37.7 °F /  3.2 °C 30.5 °F /  -0.8 °C 29.90in /  1012.4hPa WSW 0.4mph /  0.6km/h 7mph /  11.3km/h 75% 0.00in /  0mm 0 W/m2
17:04 37.7 °F /  3.2 °C 30.5 °F /  -0.8 °C 29.90in /  1012.4hPa WSW 0.5mph /  0.8km/h 7mph /  11.3km/h 75% 0.00in /  0mm 0 W/m2
17:09 37.5 °F /  3.1 °C 30.5 °F /  -0.8 °C 29.90in /  1012.4hPa SW 1.2mph /  1.9km/h 7mph /  11.3km/h 75.3% 0.00in /  0mm 0 W/m2
17:14 37.5 °F /  3.1 °C 30.7 °F /  -0.7 °C 29.90in /  1012.4hPa SW 3.4mph /  5.5km/h 10mph /  16.1km/h 76.3% 0.00in /  0mm 0 W/m2
17:19 37.3 °F /  2.9 °C 30.8 °F /  -0.7 °C 29.90in /  1012.4hPa SW 1.4mph /  2.3km/h 10mph /  16.1km/h 77% 0.00in /  0mm 0 W/m2
17:24 37.2 °F /  2.9 °C 30.9 °F /  -0.6 °C 29.90in /  1012.4hPa SW 2mph /  3.2km/h 10mph /  16.1km/h 77.6% 0.00in /  0mm 0 W/m2
17:29 37.1 °F /  2.8 °C 30.9 °F /  -0.6 °C 29.90in /  1012.4hPa SW 1.2mph /  1.9km/h 10mph /  16.1km/h 78.1% 0.00in /  0mm 0 W/m2
17:34 37 °F /  2.8 °C 31.1 °F /  -0.5 °C 29.90in /  1012.4hPa SW 0.3mph /  0.5km/h 10mph /  16.1km/h 79% 0.00in /  0mm 0 W/m2
17:39 36.9 °F /  2.7 °C 31 °F /  -0.6 °C 29.90in /  1012.4hPa SW 2mph /  3.2km/h 6mph /  9.7km/h 79% 0.00in /  0mm 0 W/m2
17:44 36.9 °F /  2.7 °C 31.1 °F /  -0.5 °C 29.90in /  1012.4hPa SW 1mph /  1.6km/h 6mph /  9.7km/h 79.2% 0.00in /  0mm 0 W/m2
17:49 36.8 °F /  2.7 °C 31.2 °F /  -0.4 °C 29.90in /  1012.4hPa SW 0.7mph /  1.1km/h 6mph /  9.7km/h 80% 0.00in /  0mm 0 W/m2
17:54 36.8 °F /  2.7 °C 31.2 °F /  -0.4 °C 29.90in /  1012.4hPa SW 1.5mph /  2.4km/h 6mph /  9.7km/h 80% 0.00in /  0mm 0 W/m2
17:59 36.8 °F /  2.7 °C 31.3 °F /  -0.4 °C 29.90in /  1012.4hPa SW 0.3mph /  0.5km/h 6mph /  9.7km/h 80.2% 0.00in /  0mm 0 W/m2
18:04 36.7 °F /  2.6 °C 31.3 °F /  -0.4 °C 29.90in /  1012.4hPa SW 0.2mph /  0.3km/h 6mph /  9.7km/h 80.4% 0.00in /  0mm 0 W/m2
18:09 36.7 °F /  2.6 °C 31.4 °F /  -0.3 °C 29.90in /  1012.4hPa SW 0.2mph /  0.3km/h 3mph /  4.8km/h 81% 0.00in /  0mm 0 W/m2
18:14 36.7 °F /  2.6 °C 31.4 °F /  -0.3 °C 29.90in /  1012.4hPa SW 0.2mph /  0.3km/h 3mph /  4.8km/h 81% 0.00in /  0mm 0 W/m2
18:19 36.6 °F /  2.6 °C 31.4 °F /  -0.3 °C 29.90in /  1012.4hPa SW 0.3mph /  0.5km/h 3mph /  4.8km/h 81% 0.00in /  0mm 0 W/m2
18:24 36.6 °F /  2.6 °C 31.5 °F /  -0.3 °C 29.90in /  1012.4hPa SW 0.2mph /  0.3km/h 3mph /  4.8km/h 81.6% 0.00in /  0mm 0 W/m2
18:29 36.6 °F /  2.6 °C 31.6 °F /  -0.2 °C 29.90in /  1012.4hPa Calm   3mph /  4.8km/h 81.8% 0.00in /  0mm 0 W/m2
18:34 36.6 °F /  2.6 °C 31.6 °F /  -0.2 °C 29.90in /  1012.4hPa SW 0.1mph /  0.2km/h 3mph /  4.8km/h 82% 0.00in /  0mm 0 W/m2
18:39 36.5 °F /  2.5 °C 31.5 °F /  -0.3 °C 29.90in /  1012.4hPa SW 0.1mph /  0.2km/h 3mph /  4.8km/h 82% 0.00in /  0mm 0 W/m2
18:44 36.5 °F /  2.5 °C 31.5 °F /  -0.3 °C 29.91in /  1012.8hPa SW 0.7mph /  1.1km/h 4mph /  6.4km/h 82% 0.00in /  0mm 0 W/m2
18:45 36.5 °F /  2.5 °C 31.5 °F /  -0.3 °C 29.91in /  1012.8hPa Calm   4mph /  6.4km/h 82% 0.00in /  0mm 0 W/m2
19:00 36.6 °F /  2.6 °C 31.6 °F /  -0.2 °C 29.90in /  1012.4hPa Calm   4mph /  6.4km/h 82% 0.00in /  0mm 0 W/m2
19:30 36.5 °F /  2.5 °C 31.5 °F /  -0.3 °C 29.90in /  1012.4hPa Calm   4mph /  6.4km/h 82% 0.00in /  0mm 0 W/m2
20:04 36.1 °F /  2.3 °C 31.4 °F /  -0.3 °C 29.91in /  1012.8hPa Calm   4mph /  6.4km/h 82.9% 0.00in /  0mm 0 W/m2
20:09 36 °F /  2.2 °C 31.4 °F /  -0.3 °C 29.91in /  1012.8hPa Calm     83% 0.00in /  0mm 0 W/m2
20:14 36 °F /  2.2 °C 31.4 °F /  -0.3 °C 29.91in /  1012.8hPa Calm     83% 0.00in /  0mm 0 W/m2
20:19 36 °F /  2.2 °C 31.4 °F /  -0.3 °C 29.91in /  1012.8hPa Calm     83% 0.00in /  0mm 0 W/m2
20:24 36 °F /  2.2 °C 31.4 °F /  -0.3 °C 29.91in /  1012.8hPa Calm     83% 0.00in /  0mm 0 W/m2
20:29 36 °F /  2.2 °C 31.4 °F /  -0.3 °C 29.91in /  1012.8hPa Calm     83% 0.00in /  0mm 0 W/m2
20:34 36 °F /  2.2 °C 31.4 °F /  -0.3 °C 29.91in /  1012.8hPa Calm     83.2% 0.00in /  0mm 0 W/m2
20:39 36 °F /  2.2 °C 31.6 °F /  -0.2 °C 29.91in /  1012.8hPa Calm     83.8% 0.00in /  0mm 0 W/m2
20:44 36.1 °F /  2.3 °C 31.7 °F /  -0.2 °C 29.91in /  1012.8hPa Calm     84% 0.00in /  0mm 0 W/m2
20:49 36.2 °F /  2.3 °C 31.5 °F /  -0.3 °C 29.91in /  1012.8hPa Calm     83.1% 0.00in /  0mm 0 W/m2
20:54 36.2 °F /  2.3 °C 31.6 °F /  -0.2 °C 29.91in /  1012.8hPa Calm     83% 0.00in /  0mm 0 W/m2
20:59 36.3 °F /  2.4 °C 31.9 °F /  -0.1 °C 29.91in /  1012.8hPa Calm     83.6% 0.00in /  0mm 0 W/m2
21:04 36.4 °F /  2.4 °C 31.8 °F /  -0.1 °C 29.91in /  1012.8hPa SW 0.3mph /  0.5km/h 4mph /  6.4km/h 83% 0.00in /  0mm 0 W/m2
21:09 36.5 °F /  2.5 °C 31.8 °F /  -0.1 °C 29.91in /  1012.8hPa SW 0.1mph /  0.2km/h 4mph /  6.4km/h 83% 0.00in /  0mm 0 W/m2
21:13 36.6 °F /  2.6 °C 31.9 °F /  -0.1 °C 29.91in /  1012.8hPa Calm   4mph /  6.4km/h 83% 0.00in /  0mm 0 W/m2
21:30 36.9 °F /  2.7 °C 31.9 °F /  -0.1 °C 29.91in /  1012.8hPa Calm   5mph /  8km/h 82% 0.00in /  0mm 0 W/m2
22:00 37.4 °F /  3 °C 32.1 °F /  0.1 °C 29.90in /  1012.4hPa WSW 1mph /  1.6km/h 10mph /  16.1km/h 81% 0.00in /  0mm 0 W/m2
22:30 37.4 °F /  3 °C 31.8 °F /  -0.1 °C 29.91in /  1012.8hPa Calm   5mph /  8km/h 80% 0.00in /  0mm 0 W/m2
23:04 36.9 °F /  2.7 °C 31.4 °F /  -0.3 °C 29.91in /  1012.8hPa SW 0.5mph /  0.8km/h 5mph /  8km/h 80% 0.00in /  0mm 0 W/m2
23:09 36.8 °F /  2.7 °C 31.3 °F /  -0.4 °C 29.91in /  1012.8hPa SW 0.2mph /  0.3km/h 3mph /  4.8km/h 80.4% 0.00in /  0mm 0 W/m2
23:14 36.6 °F /  2.6 °C 31.4 °F /  -0.3 °C 29.91in /  1012.8hPa SW 0.1mph /  0.2km/h 3mph /  4.8km/h 81% 0.00in /  0mm 0 W/m2
23:19 36.5 °F /  2.5 °C 31.2 °F /  -0.4 °C 29.91in /  1012.8hPa Calm   3mph /  4.8km/h 81% 0.00in /  0mm 0 W/m2
23:24 36.3 °F /  2.4 °C 31 °F /  -0.6 °C 29.91in /  1012.8hPa Calm   3mph /  4.8km/h 81% 0.00in /  0mm 0 W/m2
23:29 36.1 °F /  2.3 °C 31 °F /  -0.6 °C 29.91in /  1012.8hPa Calm   3mph /  4.8km/h 81.5% 0.00in /  0mm 0 W/m2
23:34 36 °F /  2.2 °C 31 °F /  -0.6 °C 29.91in /  1012.8hPa Calm   3mph /  4.8km/h 82% 0.00in /  0mm 0 W/m2
23:39 35.9 °F /  2.2 °C 31 °F /  -0.6 °C 29.91in /  1012.8hPa SW 0.1mph /  0.2km/h 3mph /  4.8km/h 82% 0.00in /  0mm 0 W/m2
23:44 35.9 °F /  2.2 °C 31.1 °F /  -0.5 °C 29.90in /  1012.4hPa Calm   3mph /  4.8km/h 82.4% 0.00in /  0mm 0 W/m2
23:49 35.8 °F /  2.1 °C 31.1 °F /  -0.5 °C 29.90in /  1012.4hPa Calm   3mph /  4.8km/h 82.8% 0.00in /  0mm 0 W/m2
23:54 35.8 °F /  2.1 °C 31.2 °F /  -0.4 °C 29.90in /  1012.4hPa Calm   3mph /  4.8km/h 83% 0.00in /  0mm 0 W/m2
23:59 35.8 °F /  2.1 °C 31.2 °F /  -0.4 °C 29.89in /  1012.1hPa Calm   3mph /  4.8km/h 83% 0.00in /  0mm 0 W/m2
Hartford County Weather
Compliments of Weather Underground - 4 mb